createdAt,value
2023-04-29T00:00:19.498Z,0
2023-04-29T00:05:19.924Z,0
2023-04-29T00:10:19.470Z,0
2023-04-29T00:15:19.588Z,0
2023-04-29T00:20:19.504Z,0
2023-04-29T00:25:16.502Z,0
2023-04-29T00:30:19.457Z,0
2023-04-29T00:35:16.522Z,0
2023-04-29T00:40:16.504Z,0
2023-04-29T00:45:19.486Z,0
2023-04-29T00:50:16.465Z,0
2023-04-29T00:55:16.554Z,0
2023-04-29T01:00:19.488Z,0
2023-04-29T01:05:16.615Z,0
2023-04-29T01:10:19.545Z,0
2023-04-29T01:15:16.531Z,0
2023-04-29T01:20:16.498Z,0
2023-04-29T01:25:16.385Z,0
2023-04-29T01:30:16.515Z,0
2023-04-29T01:35:19.493Z,0
2023-04-29T01:40:16.606Z,0
2023-04-29T01:45:19.550Z,0
2023-04-29T01:50:16.321Z,0
2023-04-29T01:55:19.577Z,0
2023-04-29T02:00:16.551Z,0
2023-04-29T02:05:19.548Z,0
2023-04-29T02:10:19.577Z,0
2023-04-29T02:15:16.596Z,0
2023-04-29T02:20:19.565Z,0
2023-04-29T02:25:19.519Z,0
2023-04-29T02:30:16.635Z,0
2023-04-29T02:35:19.567Z,0
2023-04-29T02:40:19.609Z,0
2023-04-29T02:45:16.550Z,0
2023-04-29T02:50:16.567Z,0
2023-04-29T02:55:19.639Z,0
2023-04-29T03:00:19.677Z,0
2023-04-29T03:05:19.646Z,0
2023-04-29T03:10:19.542Z,0
2023-04-29T03:15:16.579Z,0
2023-04-29T03:20:19.603Z,0
2023-04-29T03:25:19.563Z,0
2023-04-29T03:30:19.632Z,0
2023-04-29T03:35:19.579Z,0
2023-04-29T03:40:16.666Z,0
2023-04-29T03:45:16.604Z,0
2023-04-29T03:50:19.647Z,0
2023-04-29T03:55:19.594Z,0
2023-04-29T04:00:15.846Z,0
2023-04-29T04:05:18.880Z,0
2023-04-29T04:10:15.852Z,0
2023-04-29T04:15:18.916Z,0
2023-04-29T04:20:18.833Z,0
2023-04-29T04:25:18.872Z,0
2023-04-29T04:30:18.801Z,0
2023-04-29T04:35:15.938Z,0
2023-04-29T04:40:18.835Z,0
2023-04-29T04:45:15.895Z,0
2023-04-29T04:50:18.863Z,0
2023-04-29T04:55:19.024Z,0
2023-04-29T05:00:15.926Z,0
2023-04-29T05:05:18.904Z,0
2023-04-29T05:10:19.112Z,0
2023-04-29T05:15:18.875Z,0
2023-04-29T05:20:15.979Z,0
2023-04-29T05:25:19.004Z,0
2023-04-29T05:30:15.927Z,0
2023-04-29T05:35:15.929Z,0
2023-04-29T05:40:18.936Z,0
2023-04-29T05:45:16.031Z,0
2023-04-29T05:50:18.890Z,0
2023-04-29T05:55:15.978Z,0
2023-04-29T06:00:18.880Z,0
2023-04-29T06:05:19.104Z,0
2023-04-29T06:10:15.954Z,0
2023-04-29T06:15:15.932Z,0
2023-04-29T06:20:18.928Z,0
2023-04-29T06:25:16.066Z,0
2023-04-29T06:30:18.945Z,0
2023-04-29T06:35:18.961Z,0
2023-04-29T06:40:15.967Z,0
2023-04-29T06:45:18.919Z,0
2023-04-29T06:50:15.945Z,0
2023-04-29T06:55:15.844Z,0
2023-04-29T07:00:18.973Z,0
2023-04-29T07:05:16.013Z,0
2023-04-29T07:10:19.011Z,0
2023-04-29T07:15:18.921Z,0
2023-04-29T07:20:15.958Z,0
2023-04-29T07:25:18.965Z,0
2023-04-29T07:30:16.002Z,0
2023-04-29T07:35:15.743Z,0
2023-04-29T07:40:18.969Z,0
2023-04-29T07:45:15.971Z,0
2023-04-29T07:50:18.956Z,0
2023-04-29T07:55:19.083Z,0
2023-04-29T08:00:15.947Z,0
2023-04-29T08:05:19.510Z,0
2023-04-29T08:10:15.969Z,0
2023-04-29T08:15:15.988Z,0
2023-04-29T08:20:19.149Z,0
2023-04-29T08:25:16.065Z,0
2023-04-29T08:30:18.962Z,0
2023-04-29T08:35:18.920Z,0
2023-04-29T08:40:19.005Z,0
2023-04-29T08:45:18.989Z,0
2023-04-29T08:50:18.983Z,0
2023-04-29T08:55:19.173Z,0
2023-04-29T09:00:15.987Z,0
2023-04-29T09:05:19.066Z,0
2023-04-29T09:10:19.039Z,0
2023-04-29T09:15:16.051Z,0
2023-04-29T09:20:18.988Z,0
2023-04-29T09:25:16.099Z,0
2023-04-29T09:30:15.841Z,0
2023-04-29T09:35:19.009Z,0
2023-04-29T09:40:19.107Z,0
2023-04-29T09:45:18.955Z,0
2023-04-29T09:50:16.013Z,0
2023-04-29T09:55:19.053Z,0
2023-04-29T10:00:19.088Z,2
2023-04-29T10:05:19.014Z,6
2023-04-29T10:10:18.984Z,9
2023-04-29T10:15:16.142Z,13
2023-04-29T10:20:18.994Z,19
2023-04-29T10:25:19.039Z,23
2023-04-29T10:30:16.156Z,30
2023-04-29T10:35:19.089Z,35
2023-04-29T10:40:18.994Z,37
2023-04-29T10:45:16.093Z,42
2023-04-29T10:50:19.064Z,33
2023-04-29T10:55:16.076Z,32
2023-04-29T11:00:19.085Z,37
2023-04-29T11:05:19.047Z,41
2023-04-29T11:10:16.042Z,45
2023-04-29T11:15:19.079Z,49
2023-04-29T11:20:19.072Z,58
2023-04-29T11:25:19.008Z,70
2023-04-29T11:30:19.111Z,78
2023-04-29T11:35:19.047Z,87
2023-04-29T11:40:19.037Z,97
2023-04-29T11:45:19.147Z,107
2023-04-29T11:50:16.089Z,120
2023-04-29T11:55:19.116Z,129
2023-04-29T12:00:19.092Z,137
2023-04-29T12:05:16.986Z,149
2023-04-29T12:10:19.154Z,173
2023-04-29T12:15:19.041Z,177
2023-04-29T12:20:19.108Z,177
2023-04-29T12:25:19.172Z,191
2023-04-29T12:30:19.138Z,211
2023-04-29T12:35:16.130Z,216
2023-04-29T12:40:19.111Z,223
2023-04-29T12:45:15.952Z,243
2023-04-29T12:50:19.096Z,243
2023-04-29T12:55:16.203Z,274
2023-04-29T13:00:16.105Z,271
2023-04-29T13:05:16.103Z,284
2023-04-29T13:10:16.136Z,306
2023-04-29T13:15:19.147Z,309
2023-04-29T13:20:16.157Z,302
2023-04-29T13:25:19.519Z,238
2023-04-29T13:30:16.374Z,180
2023-04-29T13:35:19.217Z,154
2023-04-29T13:40:20.430Z,138
2023-04-29T13:45:19.176Z,139
2023-04-29T13:51:00.976Z,153
2023-04-29T13:56:15.375Z,168
2023-04-29T14:00:47.175Z,180
2023-04-29T14:05:16.300Z,202
2023-04-29T14:10:19.493Z,221
2023-04-29T14:15:19.152Z,224
2023-04-29T14:20:16.169Z,214
2023-04-29T14:25:19.194Z,268
2023-04-29T14:30:16.205Z,362
2023-04-29T14:35:19.662Z,371
2023-04-29T14:40:19.161Z,381
2023-04-29T14:45:15.974Z,357
2023-04-29T14:50:19.151Z,288
2023-04-29T14:55:16.263Z,253
2023-04-29T15:00:19.143Z,245
2023-04-29T15:05:19.118Z,245
2023-04-29T15:10:16.237Z,236
2023-04-29T15:15:16.181Z,234
2023-04-29T15:20:19.150Z,223
2023-04-29T15:25:19.287Z,199
2023-04-29T15:30:19.172Z,179
2023-04-29T15:35:19.168Z,159
2023-04-29T15:40:19.171Z,145
2023-04-29T15:45:16.216Z,148
2023-04-29T15:50:19.182Z,157
2023-04-29T15:55:16.830Z,169
2023-04-29T16:00:16.214Z,176
2023-04-29T16:05:16.161Z,183
2023-04-29T16:10:19.174Z,178
2023-04-29T16:15:19.199Z,171
2023-04-29T16:20:19.191Z,159
2023-04-29T16:25:19.177Z,150
2023-04-29T16:30:19.212Z,144
2023-04-29T16:35:16.391Z,142
2023-04-29T16:40:19.385Z,150
2023-04-29T16:45:16.023Z,163
2023-04-29T16:50:19.205Z,168
2023-04-29T16:55:19.256Z,161
2023-04-29T17:00:19.214Z,174
2023-04-29T17:05:16.242Z,200
2023-04-29T17:10:19.219Z,216
2023-04-29T17:15:16.280Z,235
2023-04-29T17:20:19.324Z,255
2023-04-29T17:25:16.256Z,267
2023-04-29T17:30:19.240Z,260
2023-04-29T17:35:19.252Z,272
2023-04-29T17:40:19.200Z,258
2023-04-29T17:45:19.200Z,299
2023-04-29T17:50:19.255Z,306
2023-04-29T17:55:16.242Z,237
2023-04-29T18:00:16.359Z,200
2023-04-29T18:05:19.263Z,152
2023-04-29T18:10:16.339Z,118
2023-04-29T18:15:19.247Z,101
2023-04-29T18:20:19.225Z,102
2023-04-29T18:25:19.305Z,123
2023-04-29T18:30:16.260Z,145
2023-04-29T18:35:19.280Z,193
2023-04-29T18:40:19.286Z,267
2023-04-29T18:45:19.282Z,217
2023-04-29T18:50:16.329Z,141
2023-04-29T18:55:16.272Z,103
2023-04-29T19:00:19.285Z,115
2023-04-29T19:05:16.320Z,145
2023-04-29T19:10:19.358Z,148
2023-04-29T19:15:19.235Z,186
2023-04-29T19:20:16.288Z,199
2023-04-29T19:25:19.314Z,240
2023-04-29T19:30:19.362Z,239
2023-04-29T19:35:19.277Z,155
2023-04-29T19:40:16.335Z,123
2023-04-29T19:45:16.302Z,159
2023-04-29T19:50:16.308Z,190
2023-04-29T19:55:19.302Z,199
2023-04-29T20:00:19.336Z,182
2023-04-29T20:05:19.266Z,184
2023-04-29T20:10:19.313Z,165
2023-04-29T20:15:19.281Z,105
2023-04-29T20:20:16.372Z,82
2023-04-29T20:25:16.323Z,86
2023-04-29T20:30:19.310Z,97
2023-04-29T20:35:16.356Z,116
2023-04-29T20:40:19.315Z,110
2023-04-29T20:45:19.350Z,112
2023-04-29T20:50:16.381Z,100
2023-04-29T20:55:19.355Z,86
2023-04-29T21:00:19.404Z,92
2023-04-29T21:05:16.374Z,62
2023-04-29T21:10:19.354Z,48
2023-04-29T21:15:16.337Z,43
2023-04-29T21:20:16.190Z,43
2023-04-29T21:25:19.428Z,50
2023-04-29T21:30:19.372Z,60
2023-04-29T21:35:19.305Z,61
2023-04-29T21:40:16.376Z,41
2023-04-29T21:45:19.369Z,32
2023-04-29T21:50:19.391Z,28
2023-04-29T21:55:19.360Z,25
2023-04-29T22:00:16.421Z,22
2023-04-29T22:05:16.416Z,23
2023-04-29T22:10:19.452Z,20
2023-04-29T22:15:27.411Z,19
2023-04-29T22:20:19.483Z,17
2023-04-29T22:25:19.337Z,20
2023-04-29T22:30:19.413Z,20
2023-04-29T22:35:19.355Z,21
2023-04-29T22:40:16.480Z,14
2023-04-29T22:45:19.396Z,13
2023-04-29T22:50:16.452Z,9
2023-04-29T22:55:19.417Z,11
2023-04-29T23:00:16.399Z,8
2023-04-29T23:05:19.386Z,5
2023-04-29T23:10:19.377Z,6
2023-04-29T23:15:16.202Z,1
2023-04-29T23:20:19.408Z,0
2023-04-29T23:25:19.504Z,0
2023-04-29T23:30:16.392Z,0
2023-04-29T23:35:19.508Z,0
2023-04-29T23:40:16.440Z,0
2023-04-29T23:45:19.388Z,0
2023-04-29T23:50:19.421Z,0
2023-04-29T23:55:19.415Z,0
